sensor_id;sensor_type;location;lat;lon;timestamp;P1;durP1;ratioP1;P2;durP2;ratioP2
31336;SDS011;22846;42.654;23.314;2023-05-29T00:00:31;10.43;;;7.65;;
31336;SDS011;22846;42.654;23.314;2023-05-29T00:02:56;10.00;;;7.70;;
31336;SDS011;22846;42.654;23.314;2023-05-29T00:05:22;8.55;;;7.20;;
31336;SDS011;22846;42.654;23.314;2023-05-29T00:07:47;8.63;;;6.93;;
31336;SDS011;22846;42.654;23.314;2023-05-29T00:10:15;8.90;;;6.95;;
31336;SDS011;22846;42.654;23.314;2023-05-29T00:12:41;8.65;;;7.03;;
31336;SDS011;22846;42.654;23.314;2023-05-29T00:15:06;8.73;;;6.78;;
31336;SDS011;22846;42.654;23.314;2023-05-29T00:17:33;8.50;;;6.45;;
31336;SDS011;22846;42.654;23.314;2023-05-29T00:19:59;8.57;;;6.75;;
31336;SDS011;22846;42.654;23.314;2023-05-29T00:22:26;8.35;;;6.75;;
31336;SDS011;22846;42.654;23.314;2023-05-29T00:24:52;7.80;;;6.30;;
31336;SDS011;22846;42.654;23.314;2023-05-29T00:27:18;8.02;;;6.40;;
31336;SDS011;22846;42.654;23.314;2023-05-29T00:29:43;8.10;;;6.35;;
31336;SDS011;22846;42.654;23.314;2023-05-29T00:32:09;7.72;;;5.97;;
31336;SDS011;22846;42.654;23.314;2023-05-29T00:34:34;6.65;;;5.88;;
31336;SDS011;22846;42.654;23.314;2023-05-29T00:37:00;7.18;;;5.78;;
31336;SDS011;22846;42.654;23.314;2023-05-29T00:39:26;7.10;;;5.60;;
31336;SDS011;22846;42.654;23.314;2023-05-29T00:41:52;8.00;;;6.00;;
31336;SDS011;22846;42.654;23.314;2023-05-29T00:44:20;6.57;;;5.22;;
31336;SDS011;22846;42.654;23.314;2023-05-29T00:46:50;7.75;;;6.18;;
31336;SDS011;22846;42.654;23.314;2023-05-29T00:49:18;6.50;;;5.20;;
31336;SDS011;22846;42.654;23.314;2023-05-29T00:51:45;6.35;;;5.40;;
31336;SDS011;22846;42.654;23.314;2023-05-29T00:54:11;6.53;;;5.45;;
31336;SDS011;22846;42.654;23.314;2023-05-29T00:56:39;8.25;;;5.90;;
31336;SDS011;22846;42.654;23.314;2023-05-29T00:59:08;5.90;;;4.90;;
31336;SDS011;22846;42.654;23.314;2023-05-29T01:01:35;6.80;;;5.57;;
31336;SDS011;22846;42.654;23.314;2023-05-29T01:04:00;6.00;;;5.07;;
31336;SDS011;22846;42.654;23.314;2023-05-29T01:06:28;8.05;;;5.28;;
31336;SDS011;22846;42.654;23.314;2023-05-29T01:08:54;6.43;;;5.40;;
31336;SDS011;22846;42.654;23.314;2023-05-29T01:13:59;6.03;;;5.20;;
31336;SDS011;22846;42.654;23.314;2023-05-29T01:16:36;5.68;;;4.88;;
31336;SDS011;22846;42.654;23.314;2023-05-29T01:19:30;5.28;;;4.78;;
31336;SDS011;22846;42.654;23.314;2023-05-29T01:28:07;6.75;;;4.80;;
31336;SDS011;22846;42.654;23.314;2023-05-29T01:30:36;5.20;;;4.40;;
31336;SDS011;22846;42.654;23.314;2023-05-29T01:33:03;5.38;;;4.65;;
31336;SDS011;22846;42.654;23.314;2023-05-29T01:35:29;4.82;;;4.05;;
31336;SDS011;22846;42.654;23.314;2023-05-29T01:37:54;6.03;;;4.53;;
31336;SDS011;22846;42.654;23.314;2023-05-29T01:40:20;5.45;;;3.95;;
31336;SDS011;22846;42.654;23.314;2023-05-29T01:42:45;6.28;;;4.40;;
31336;SDS011;22846;42.654;23.314;2023-05-29T01:45:11;5.93;;;4.60;;
31336;SDS011;22846;42.654;23.314;2023-05-29T01:47:37;4.85;;;3.92;;
31336;SDS011;22846;42.654;23.314;2023-05-29T01:50:03;5.90;;;4.22;;
31336;SDS011;22846;42.654;23.314;2023-05-29T01:52:29;6.57;;;4.35;;
31336;SDS011;22846;42.654;23.314;2023-05-29T01:54:55;4.43;;;3.70;;
31336;SDS011;22846;42.654;23.314;2023-05-29T01:57:20;5.88;;;3.75;;
31336;SDS011;22846;42.654;23.314;2023-05-29T01:59:46;5.47;;;4.10;;
31336;SDS011;22846;42.654;23.314;2023-05-29T02:02:12;4.80;;;3.85;;
31336;SDS011;22846;42.654;23.314;2023-05-29T02:04:38;4.35;;;3.72;;
31336;SDS011;22846;42.654;23.314;2023-05-29T02:07:03;4.45;;;3.60;;
31336;SDS011;22846;42.654;23.314;2023-05-29T02:09:29;4.63;;;4.10;;
31336;SDS011;22846;42.654;23.314;2023-05-29T02:11:55;4.70;;;4.03;;
31336;SDS011;22846;42.654;23.314;2023-05-29T02:14:21;5.00;;;3.42;;
31336;SDS011;22846;42.654;23.314;2023-05-29T02:16:49;4.78;;;4.00;;
31336;SDS011;22846;42.654;23.314;2023-05-29T02:19:16;4.75;;;3.92;;
31336;SDS011;22846;42.654;23.314;2023-05-29T02:21:43;4.90;;;3.63;;
31336;SDS011;22846;42.654;23.314;2023-05-29T02:24:09;4.82;;;3.80;;
31336;SDS011;22846;42.654;23.314;2023-05-29T02:26:34;4.20;;;3.38;;
31336;SDS011;22846;42.654;23.314;2023-05-29T02:29:02;4.45;;;3.58;;
31336;SDS011;22846;42.654;23.314;2023-05-29T02:31:27;4.68;;;3.63;;
31336;SDS011;22846;42.654;23.314;2023-05-29T02:33:53;4.45;;;3.63;;
31336;SDS011;22846;42.654;23.314;2023-05-29T02:36:18;4.28;;;3.60;;
31336;SDS011;22846;42.654;23.314;2023-05-29T02:38:44;4.85;;;3.60;;
31336;SDS011;22846;42.654;23.314;2023-05-29T02:41:09;4.35;;;3.40;;
31336;SDS011;22846;42.654;23.314;2023-05-29T02:43:34;4.55;;;3.40;;
31336;SDS011;22846;42.654;23.314;2023-05-29T02:46:00;3.63;;;3.22;;
31336;SDS011;22846;42.654;23.314;2023-05-29T02:48:25;3.35;;;3.05;;
31336;SDS011;22846;42.654;23.314;2023-05-29T02:50:51;3.53;;;3.15;;
31336;SDS011;22846;42.654;23.314;2023-05-29T02:53:16;3.88;;;3.40;;
31336;SDS011;22846;42.654;23.314;2023-05-29T02:55:42;4.30;;;3.40;;
31336;SDS011;22846;42.654;23.314;2023-05-29T02:58:07;4.60;;;3.40;;
31336;SDS011;22846;42.654;23.314;2023-05-29T03:00:33;3.83;;;3.08;;
31336;SDS011;22846;42.654;23.314;2023-05-29T03:02:58;3.72;;;3.17;;
31336;SDS011;22846;42.654;23.314;2023-05-29T03:05:24;4.05;;;3.40;;
31336;SDS011;22846;42.654;23.314;2023-05-29T03:07:49;4.22;;;3.40;;
31336;SDS011;22846;42.654;23.314;2023-05-29T03:10:14;3.15;;;2.85;;
31336;SDS011;22846;42.654;23.314;2023-05-29T03:12:42;3.85;;;3.17;;
31336;SDS011;22846;42.654;23.314;2023-05-29T03:15:09;4.13;;;3.10;;
31336;SDS011;22846;42.654;23.314;2023-05-29T03:17:34;3.75;;;3.00;;
31336;SDS011;22846;42.654;23.314;2023-05-29T03:20:02;3.50;;;3.00;;
31336;SDS011;22846;42.654;23.314;2023-05-29T03:22:30;3.00;;;2.60;;
31336;SDS011;22846;42.654;23.314;2023-05-29T03:24:56;3.70;;;3.00;;
31336;SDS011;22846;42.654;23.314;2023-05-29T03:27:21;3.53;;;2.92;;
31336;SDS011;22846;42.654;23.314;2023-05-29T03:29:47;3.53;;;3.00;;
31336;SDS011;22846;42.654;23.314;2023-05-29T03:32:13;3.30;;;2.70;;
31336;SDS011;22846;42.654;23.314;2023-05-29T03:34:38;3.20;;;2.70;;
31336;SDS011;22846;42.654;23.314;2023-05-29T03:37:04;3.30;;;2.72;;
31336;SDS011;22846;42.654;23.314;2023-05-29T03:39:30;4.50;;;3.17;;
31336;SDS011;22846;42.654;23.314;2023-05-29T03:41:55;3.92;;;2.80;;
31336;SDS011;22846;42.654;23.314;2023-05-29T03:44:21;3.00;;;2.63;;
31336;SDS011;22846;42.654;23.314;2023-05-29T03:46:46;2.85;;;2.65;;
31336;SDS011;22846;42.654;23.314;2023-05-29T03:49:12;3.25;;;2.70;;
31336;SDS011;22846;42.654;23.314;2023-05-29T03:51:37;3.80;;;2.58;;
31336;SDS011;22846;42.654;23.314;2023-05-29T03:54:03;2.88;;;2.63;;
31336;SDS011;22846;42.654;23.314;2023-05-29T03:56:28;2.60;;;2.40;;
31336;SDS011;22846;42.654;23.314;2023-05-29T03:58:54;3.17;;;2.60;;
31336;SDS011;22846;42.654;23.314;2023-05-29T04:01:20;3.63;;;3.00;;
31336;SDS011;22846;42.654;23.314;2023-05-29T04:03:45;3.05;;;2.75;;
31336;SDS011;22846;42.654;23.314;2023-05-29T04:06:11;3.53;;;2.80;;
31336;SDS011;22846;42.654;23.314;2023-05-29T04:08:36;3.40;;;2.80;;
31336;SDS011;22846;42.654;23.314;2023-05-29T04:11:02;3.05;;;2.63;;
31336;SDS011;22846;42.654;23.314;2023-05-29T04:13:28;3.47;;;2.60;;
31336;SDS011;22846;42.654;23.314;2023-05-29T04:15:54;2.72;;;2.30;;
31336;SDS011;22846;42.654;23.314;2023-05-29T04:18:20;2.67;;;2.20;;
31336;SDS011;22846;42.654;23.314;2023-05-29T04:20:46;2.97;;;2.55;;
31336;SDS011;22846;42.654;23.314;2023-05-29T04:23:12;2.78;;;2.50;;
31336;SDS011;22846;42.654;23.314;2023-05-29T04:25:38;3.13;;;2.33;;
31336;SDS011;22846;42.654;23.314;2023-05-29T04:28:03;2.65;;;2.45;;
31336;SDS011;22846;42.654;23.314;2023-05-29T04:30:29;2.97;;;2.50;;
31336;SDS011;22846;42.654;23.314;2023-05-29T04:32:55;3.63;;;2.90;;
31336;SDS011;22846;42.654;23.314;2023-05-29T04:35:20;2.92;;;2.40;;
31336;SDS011;22846;42.654;23.314;2023-05-29T04:37:46;3.17;;;2.40;;
31336;SDS011;22846;42.654;23.314;2023-05-29T04:40:12;3.33;;;2.60;;
31336;SDS011;22846;42.654;23.314;2023-05-29T04:42:42;2.92;;;2.63;;
31336;SDS011;22846;42.654;23.314;2023-05-29T04:45:09;2.80;;;1.83;;
31336;SDS011;22846;42.654;23.314;2023-05-29T04:47:35;2.63;;;2.40;;
31336;SDS011;22846;42.654;23.314;2023-05-29T04:50:08;3.08;;;2.58;;
31336;SDS011;22846;42.654;23.314;2023-05-29T04:52:43;3.70;;;2.50;;
31336;SDS011;22846;42.654;23.314;2023-05-29T04:55:09;2.78;;;2.15;;
31336;SDS011;22846;42.654;23.314;2023-05-29T04:57:35;3.75;;;2.50;;
31336;SDS011;22846;42.654;23.314;2023-05-29T05:00:01;2.83;;;2.53;;
31336;SDS011;22846;42.654;23.314;2023-05-29T05:02:30;2.50;;;2.28;;
31336;SDS011;22846;42.654;23.314;2023-05-29T05:04:55;3.65;;;2.88;;
31336;SDS011;22846;42.654;23.314;2023-05-29T05:07:21;2.67;;;2.45;;
31336;SDS011;22846;42.654;23.314;2023-05-29T05:09:47;2.50;;;2.22;;
31336;SDS011;22846;42.654;23.314;2023-05-29T05:12:12;2.30;;;2.10;;
31336;SDS011;22846;42.654;23.314;2023-05-29T05:14:38;2.58;;;2.10;;
31336;SDS011;22846;42.654;23.314;2023-05-29T05:17:03;2.00;;;1.80;;
31336;SDS011;22846;42.654;23.314;2023-05-29T05:19:29;2.50;;;2.00;;
31336;SDS011;22846;42.654;23.314;2023-05-29T05:21:54;3.17;;;2.28;;
31336;SDS011;22846;42.654;23.314;2023-05-29T05:24:19;2.38;;;2.17;;
31336;SDS011;22846;42.654;23.314;2023-05-29T05:26:45;3.28;;;2.08;;
31336;SDS011;22846;42.654;23.314;2023-05-29T05:29:10;3.15;;;2.30;;
31336;SDS011;22846;42.654;23.314;2023-05-29T05:31:36;5.65;;;2.63;;
31336;SDS011;22846;42.654;23.314;2023-05-29T05:34:01;13.55;;;4.40;;
31336;SDS011;22846;42.654;23.314;2023-05-29T05:36:26;11.80;;;4.60;;
31336;SDS011;22846;42.654;23.314;2023-05-29T05:38:52;9.93;;;4.30;;
31336;SDS011;22846;42.654;23.314;2023-05-29T05:41:17;14.32;;;4.80;;
31336;SDS011;22846;42.654;23.314;2023-05-29T05:43:42;9.98;;;4.72;;
31336;SDS011;22846;42.654;23.314;2023-05-29T05:46:08;9.88;;;4.63;;
31336;SDS011;22846;42.654;23.314;2023-05-29T05:48:33;15.02;;;4.57;;
31336;SDS011;22846;42.654;23.314;2023-05-29T05:50:58;7.57;;;4.65;;
31336;SDS011;22846;42.654;23.314;2023-05-29T05:53:24;7.53;;;4.30;;
31336;SDS011;22846;42.654;23.314;2023-05-29T05:55:50;8.55;;;4.60;;
31336;SDS011;22846;42.654;23.314;2023-05-29T05:58:16;6.38;;;4.30;;
31336;SDS011;22846;42.654;23.314;2023-05-29T06:00:41;9.02;;;4.80;;
31336;SDS011;22846;42.654;23.314;2023-05-29T06:03:07;8.68;;;4.57;;
31336;SDS011;22846;42.654;23.314;2023-05-29T06:05:33;5.30;;;4.18;;
31336;SDS011;22846;42.654;23.314;2023-05-29T06:08:01;6.15;;;4.00;;
31336;SDS011;22846;42.654;23.314;2023-05-29T06:10:26;7.35;;;4.03;;
31336;SDS011;22846;42.654;23.314;2023-05-29T06:12:52;6.85;;;3.95;;
31336;SDS011;22846;42.654;23.314;2023-05-29T06:15:18;5.53;;;3.90;;
31336;SDS011;22846;42.654;23.314;2023-05-29T06:17:43;6.65;;;4.28;;
31336;SDS011;22846;42.654;23.314;2023-05-29T06:20:09;9.13;;;3.83;;
31336;SDS011;22846;42.654;23.314;2023-05-29T06:22:36;8.52;;;4.20;;
31336;SDS011;22846;42.654;23.314;2023-05-29T06:25:02;9.23;;;3.90;;
31336;SDS011;22846;42.654;23.314;2023-05-29T06:27:27;9.10;;;4.20;;
31336;SDS011;22846;42.654;23.314;2023-05-29T06:29:53;4.45;;;3.35;;
31336;SDS011;22846;42.654;23.314;2023-05-29T06:32:18;6.07;;;3.88;;
31336;SDS011;22846;42.654;23.314;2023-05-29T06:34:44;5.88;;;3.90;;
31336;SDS011;22846;42.654;23.314;2023-05-29T06:37:09;5.50;;;3.63;;
31336;SDS011;22846;42.654;23.314;2023-05-29T06:39:35;5.75;;;3.50;;
31336;SDS011;22846;42.654;23.314;2023-05-29T06:42:00;5.55;;;3.85;;
31336;SDS011;22846;42.654;23.314;2023-05-29T06:44:26;6.88;;;3.75;;
31336;SDS011;22846;42.654;23.314;2023-05-29T06:46:52;6.18;;;3.30;;
31336;SDS011;22846;42.654;23.314;2023-05-29T06:49:17;5.03;;;3.20;;
31336;SDS011;22846;42.654;23.314;2023-05-29T06:51:43;4.80;;;3.30;;
31336;SDS011;22846;42.654;23.314;2023-05-29T06:54:09;7.38;;;3.40;;
31336;SDS011;22846;42.654;23.314;2023-05-29T06:56:35;7.15;;;3.63;;
31336;SDS011;22846;42.654;23.314;2023-05-29T06:59:00;8.82;;;3.78;;
31336;SDS011;22846;42.654;23.314;2023-05-29T07:01:25;5.38;;;3.20;;
31336;SDS011;22846;42.654;23.314;2023-05-29T07:03:51;6.65;;;3.70;;
31336;SDS011;22846;42.654;23.314;2023-05-29T07:06:18;11.23;;;4.72;;
31336;SDS011;22846;42.654;23.314;2023-05-29T07:08:43;7.70;;;3.75;;
31336;SDS011;22846;42.654;23.314;2023-05-29T07:11:08;7.65;;;3.45;;
31336;SDS011;22846;42.654;23.314;2023-05-29T07:13:34;9.90;;;3.90;;
31336;SDS011;22846;42.654;23.314;2023-05-29T07:16:00;6.25;;;3.35;;
31336;SDS011;22846;42.654;23.314;2023-05-29T07:18:26;6.47;;;3.10;;
31336;SDS011;22846;42.654;23.314;2023-05-29T07:20:51;9.30;;;3.65;;
31336;SDS011;22846;42.654;23.314;2023-05-29T07:23:16;6.35;;;3.28;;
31336;SDS011;22846;42.654;23.314;2023-05-29T07:25:42;6.20;;;3.35;;
31336;SDS011;22846;42.654;23.314;2023-05-29T07:28:07;4.22;;;3.00;;
31336;SDS011;22846;42.654;23.314;2023-05-29T07:30:33;5.88;;;3.20;;
31336;SDS011;22846;42.654;23.314;2023-05-29T07:32:58;6.28;;;3.13;;
31336;SDS011;22846;42.654;23.314;2023-05-29T07:35:23;5.53;;;3.00;;
31336;SDS011;22846;42.654;23.314;2023-05-29T07:37:49;6.65;;;3.38;;
31336;SDS011;22846;42.654;23.314;2023-05-29T07:40:16;7.25;;;2.95;;
31336;SDS011;22846;42.654;23.314;2023-05-29T07:42:41;4.50;;;2.97;;
31336;SDS011;22846;42.654;23.314;2023-05-29T07:45:07;6.05;;;3.30;;
31336;SDS011;22846;42.654;23.314;2023-05-29T07:47:32;4.43;;;2.92;;
31336;SDS011;22846;42.654;23.314;2023-05-29T07:49:58;7.88;;;3.08;;
31336;SDS011;22846;42.654;23.314;2023-05-29T07:52:23;5.45;;;2.75;;
31336;SDS011;22846;42.654;23.314;2023-05-29T07:54:48;5.00;;;2.88;;
31336;SDS011;22846;42.654;23.314;2023-05-29T07:57:14;9.25;;;2.90;;
31336;SDS011;22846;42.654;23.314;2023-05-29T07:59:40;8.75;;;2.92;;
31336;SDS011;22846;42.654;23.314;2023-05-29T08:02:08;6.60;;;2.95;;
31336;SDS011;22846;42.654;23.314;2023-05-29T08:04:35;6.70;;;3.00;;
31336;SDS011;22846;42.654;23.314;2023-05-29T08:07:01;4.30;;;2.53;;
31336;SDS011;22846;42.654;23.314;2023-05-29T08:09:28;4.95;;;2.55;;
31336;SDS011;22846;42.654;23.314;2023-05-29T08:11:54;4.18;;;2.72;;
31336;SDS011;22846;42.654;23.314;2023-05-29T08:14:19;3.75;;;2.45;;
31336;SDS011;22846;42.654;23.314;2023-05-29T08:16:45;3.75;;;2.58;;
31336;SDS011;22846;42.654;23.314;2023-05-29T08:19:10;3.50;;;2.40;;
31336;SDS011;22846;42.654;23.314;2023-05-29T08:21:36;5.30;;;2.78;;
31336;SDS011;22846;42.654;23.314;2023-05-29T08:24:03;5.05;;;2.60;;
31336;SDS011;22846;42.654;23.314;2023-05-29T08:26:31;6.07;;;2.90;;
31336;SDS011;22846;42.654;23.314;2023-05-29T08:28:57;3.78;;;2.83;;
31336;SDS011;22846;42.654;23.314;2023-05-29T08:31:22;3.28;;;2.50;;
31336;SDS011;22846;42.654;23.314;2023-05-29T08:33:51;5.10;;;2.70;;
31336;SDS011;22846;42.654;23.314;2023-05-29T08:36:17;5.65;;;2.42;;
31336;SDS011;22846;42.654;23.314;2023-05-29T08:38:45;3.95;;;2.53;;
31336;SDS011;22846;42.654;23.314;2023-05-29T08:41:12;3.70;;;2.38;;
31336;SDS011;22846;42.654;23.314;2023-05-29T08:43:44;4.35;;;2.35;;
31336;SDS011;22846;42.654;23.314;2023-05-29T08:46:11;5.47;;;2.83;;
31336;SDS011;22846;42.654;23.314;2023-05-29T08:48:39;3.95;;;2.53;;
31336;SDS011;22846;42.654;23.314;2023-05-29T08:51:07;4.20;;;2.72;;
31336;SDS011;22846;42.654;23.314;2023-05-29T08:53:34;3.92;;;2.40;;
31336;SDS011;22846;42.654;23.314;2023-05-29T08:56:00;5.00;;;2.20;;
31336;SDS011;22846;42.654;23.314;2023-05-29T08:58:26;3.97;;;2.40;;
31336;SDS011;22846;42.654;23.314;2023-05-29T09:00:52;3.00;;;2.00;;
31336;SDS011;22846;42.654;23.314;2023-05-29T09:03:17;4.38;;;2.20;;
31336;SDS011;22846;42.654;23.314;2023-05-29T09:05:45;5.35;;;2.45;;
31336;SDS011;22846;42.654;23.314;2023-05-29T09:08:10;4.15;;;2.55;;
31336;SDS011;22846;42.654;23.314;2023-05-29T09:10:43;3.17;;;2.25;;
31336;SDS011;22846;42.654;23.314;2023-05-29T09:13:10;4.18;;;2.33;;
31336;SDS011;22846;42.654;23.314;2023-05-29T09:15:37;5.78;;;2.78;;
31336;SDS011;22846;42.654;23.314;2023-05-29T09:18:05;3.05;;;2.33;;
31336;SDS011;22846;42.654;23.314;2023-05-29T09:20:30;2.95;;;2.20;;
31336;SDS011;22846;42.654;23.314;2023-05-29T09:27:59;4.07;;;2.63;;
31336;SDS011;22846;42.654;23.314;2023-05-29T09:30:30;3.00;;;2.45;;
31336;SDS011;22846;42.654;23.314;2023-05-29T09:32:56;3.97;;;2.25;;
31336;SDS011;22846;42.654;23.314;2023-05-29T09:35:24;2.85;;;2.10;;
31336;SDS011;22846;42.654;23.314;2023-05-29T09:37:49;2.17;;;1.88;;
31336;SDS011;22846;42.654;23.314;2023-05-29T09:40:15;4.03;;;2.30;;
31336;SDS011;22846;42.654;23.314;2023-05-29T09:42:40;2.70;;;1.90;;
31336;SDS011;22846;42.654;23.314;2023-05-29T09:45:06;4.10;;;2.00;;
31336;SDS011;22846;42.654;23.314;2023-05-29T09:47:33;3.63;;;2.20;;
31336;SDS011;22846;42.654;23.314;2023-05-29T09:50:00;3.88;;;2.20;;
31336;SDS011;22846;42.654;23.314;2023-05-29T09:52:26;2.67;;;1.90;;
31336;SDS011;22846;42.654;23.314;2023-05-29T09:54:55;4.05;;;2.05;;
31336;SDS011;22846;42.654;23.314;2023-05-29T09:57:21;3.65;;;2.08;;
31336;SDS011;22846;42.654;23.314;2023-05-29T09:59:49;3.08;;;1.88;;
31336;SDS011;22846;42.654;23.314;2023-05-29T10:02:17;3.25;;;1.90;;
31336;SDS011;22846;42.654;23.314;2023-05-29T10:04:43;2.25;;;1.83;;
31336;SDS011;22846;42.654;23.314;2023-05-29T10:07:17;2.15;;;1.65;;
31336;SDS011;22846;42.654;23.314;2023-05-29T10:09:50;2.33;;;1.88;;
31336;SDS011;22846;42.654;23.314;2023-05-29T10:12:20;3.10;;;1.83;;
31336;SDS011;22846;42.654;23.314;2023-05-29T10:14:48;2.90;;;1.88;;
31336;SDS011;22846;42.654;23.314;2023-05-29T10:17:15;4.32;;;1.92;;
31336;SDS011;22846;42.654;23.314;2023-05-29T10:19:43;2.72;;;1.73;;
31336;SDS011;22846;42.654;23.314;2023-05-29T10:22:12;2.78;;;1.77;;
31336;SDS011;22846;42.654;23.314;2023-05-29T10:24:38;3.13;;;2.00;;
31336;SDS011;22846;42.654;23.314;2023-05-29T10:27:05;2.13;;;1.80;;
31336;SDS011;22846;42.654;23.314;2023-05-29T10:29:43;3.47;;;2.00;;
31336;SDS011;22846;42.654;23.314;2023-05-29T10:40:08;3.08;;;1.80;;
31336;SDS011;22846;42.654;23.314;2023-05-29T10:42:45;2.53;;;1.70;;
31336;SDS011;22846;42.654;23.314;2023-05-29T10:48:40;2.17;;;1.67;;
31336;SDS011;22846;42.654;23.314;2023-05-29T10:50:53;1.90;;;1.63;;
31336;SDS011;22846;42.654;23.314;2023-05-29T10:53:23;2.80;;;1.52;;
31336;SDS011;22846;42.654;23.314;2023-05-29T10:55:51;3.42;;;1.75;;
31336;SDS011;22846;42.654;23.314;2023-05-29T10:58:18;2.20;;;1.40;;
31336;SDS011;22846;42.654;23.314;2023-05-29T11:00:46;2.60;;;1.70;;
31336;SDS011;22846;42.654;23.314;2023-05-29T11:03:24;2.58;;;1.60;;
31336;SDS011;22846;42.654;23.314;2023-05-29T11:06:04;4.70;;;1.70;;
31336;SDS011;22846;42.654;23.314;2023-05-29T11:08:46;2.10;;;1.67;;
31336;SDS011;22846;42.654;23.314;2023-05-29T11:11:13;1.60;;;1.50;;
31336;SDS011;22846;42.654;23.314;2023-05-29T11:13:56;1.60;;;1.42;;
31336;SDS011;22846;42.654;23.314;2023-05-29T11:18:54;1.70;;;1.60;;
31336;SDS011;22846;42.654;23.314;2023-05-29T11:24:07;2.00;;;1.50;;
31336;SDS011;22846;42.654;23.314;2023-05-29T11:26:39;1.93;;;1.40;;
31336;SDS011;22846;42.654;23.314;2023-05-29T11:29:10;2.50;;;1.60;;
31336;SDS011;22846;42.654;23.314;2023-05-29T11:31:36;2.90;;;1.80;;
31336;SDS011;22846;42.654;23.314;2023-05-29T11:34:04;2.05;;;1.63;;
31336;SDS011;22846;42.654;23.314;2023-05-29T11:36:32;1.67;;;1.48;;
31336;SDS011;22846;42.654;23.314;2023-05-29T11:38:58;1.88;;;1.42;;
31336;SDS011;22846;42.654;23.314;2023-05-29T11:41:24;2.65;;;1.33;;
31336;SDS011;22846;42.654;23.314;2023-05-29T11:43:57;1.88;;;1.40;;
31336;SDS011;22846;42.654;23.314;2023-05-29T11:46:23;1.52;;;1.42;;
31336;SDS011;22846;42.654;23.314;2023-05-29T11:48:51;2.42;;;1.50;;
31336;SDS011;22846;42.654;23.314;2023-05-29T11:51:16;2.47;;;1.40;;
31336;SDS011;22846;42.654;23.314;2023-05-29T11:53:42;1.77;;;1.50;;
31336;SDS011;22846;42.654;23.314;2023-05-29T11:56:09;1.77;;;1.40;;
31336;SDS011;22846;42.654;23.314;2023-05-29T11:58:42;1.60;;;1.50;;
31336;SDS011;22846;42.654;23.314;2023-05-29T12:01:07;1.83;;;1.60;;
31336;SDS011;22846;42.654;23.314;2023-05-29T12:03:40;2.05;;;1.52;;
31336;SDS011;22846;42.654;23.314;2023-05-29T12:06:06;2.20;;;1.52;;
31336;SDS011;22846;42.654;23.314;2023-05-29T12:08:33;3.80;;;1.60;;
31336;SDS011;22846;42.654;23.314;2023-05-29T12:10:58;2.10;;;1.60;;
31336;SDS011;22846;42.654;23.314;2023-05-29T12:13:24;2.08;;;1.40;;
31336;SDS011;22846;42.654;23.314;2023-05-29T12:15:51;3.10;;;1.50;;
31336;SDS011;22846;42.654;23.314;2023-05-29T12:18:19;2.53;;;1.83;;
31336;SDS011;22846;42.654;23.314;2023-05-29T12:20:45;1.67;;;1.48;;
31336;SDS011;22846;42.654;23.314;2023-05-29T12:23:10;1.67;;;1.30;;
31336;SDS011;22846;42.654;23.314;2023-05-29T12:25:39;3.70;;;1.60;;
31336;SDS011;22846;42.654;23.314;2023-05-29T12:28:05;2.25;;;1.30;;
31336;SDS011;22846;42.654;23.314;2023-05-29T12:30:30;1.67;;;1.40;;
31336;SDS011;22846;42.654;23.314;2023-05-29T12:32:56;1.85;;;1.23;;
31336;SDS011;22846;42.654;23.314;2023-05-29T12:35:23;2.60;;;1.52;;
31336;SDS011;22846;42.654;23.314;2023-05-29T12:37:59;1.50;;;1.40;;
31336;SDS011;22846;42.654;23.314;2023-05-29T12:40:34;1.42;;;1.20;;
31336;SDS011;22846;42.654;23.314;2023-05-29T12:43:02;1.67;;;1.38;;
31336;SDS011;22846;42.654;23.314;2023-05-29T12:45:30;1.35;;;1.25;;
31336;SDS011;22846;42.654;23.314;2023-05-29T12:48:00;1.40;;;1.30;;
31336;SDS011;22846;42.654;23.314;2023-05-29T12:50:37;1.60;;;1.38;;
31336;SDS011;22846;42.654;23.314;2023-05-29T12:53:11;1.50;;;1.40;;
31336;SDS011;22846;42.654;23.314;2023-05-29T12:55:39;2.22;;;1.50;;
31336;SDS011;22846;42.654;23.314;2023-05-29T12:58:06;1.45;;;1.23;;
31336;SDS011;22846;42.654;23.314;2023-05-29T13:00:34;1.30;;;1.20;;
31336;SDS011;22846;42.654;23.314;2023-05-29T13:03:00;1.85;;;1.60;;
31336;SDS011;22846;42.654;23.314;2023-05-29T13:05:26;1.63;;;1.40;;
31336;SDS011;22846;42.654;23.314;2023-05-29T13:07:51;2.20;;;1.30;;
31336;SDS011;22846;42.654;23.314;2023-05-29T13:10:18;1.45;;;1.30;;
31336;SDS011;22846;42.654;23.314;2023-05-29T13:12:44;1.58;;;1.38;;
31336;SDS011;22846;42.654;23.314;2023-05-29T13:15:11;1.90;;;1.20;;
31336;SDS011;22846;42.654;23.314;2023-05-29T13:17:38;2.15;;;1.42;;
31336;SDS011;22846;42.654;23.314;2023-05-29T13:22:35;1.25;;;1.15;;
31336;SDS011;22846;42.654;23.314;2023-05-29T13:25:01;2.22;;;1.40;;
31336;SDS011;22846;42.654;23.314;2023-05-29T13:27:27;1.95;;;1.35;;
31336;SDS011;22846;42.654;23.314;2023-05-29T13:29:52;1.60;;;1.40;;
31336;SDS011;22846;42.654;23.314;2023-05-29T13:32:18;2.35;;;1.55;;
31336;SDS011;22846;42.654;23.314;2023-05-29T13:34:44;1.58;;;1.40;;
31336;SDS011;22846;42.654;23.314;2023-05-29T13:37:10;1.95;;;1.70;;
31336;SDS011;22846;42.654;23.314;2023-05-29T13:39:35;1.45;;;1.17;;
31336;SDS011;22846;42.654;23.314;2023-05-29T13:42:01;1.70;;;1.33;;
31336;SDS011;22846;42.654;23.314;2023-05-29T13:44:26;1.40;;;1.27;;
31336;SDS011;22846;42.654;23.314;2023-05-29T13:46:52;1.10;;;1.00;;
31336;SDS011;22846;42.654;23.314;2023-05-29T13:49:17;1.70;;;1.40;;
31336;SDS011;22846;42.654;23.314;2023-05-29T13:51:43;1.67;;;1.17;;
31336;SDS011;22846;42.654;23.314;2023-05-29T13:54:11;1.55;;;1.45;;
31336;SDS011;22846;42.654;23.314;2023-05-29T13:56:36;1.92;;;1.50;;
31336;SDS011;22846;42.654;23.314;2023-05-29T13:59:02;2.20;;;1.27;;
31336;SDS011;22846;42.654;23.314;2023-05-29T14:01:30;1.48;;;1.38;;
31336;SDS011;22846;42.654;23.314;2023-05-29T14:03:57;1.40;;;1.23;;
31336;SDS011;22846;42.654;23.314;2023-05-29T14:06:22;1.30;;;1.20;;
31336;SDS011;22846;42.654;23.314;2023-05-29T14:08:47;1.33;;;1.10;;
31336;SDS011;22846;42.654;23.314;2023-05-29T14:11:13;1.33;;;1.13;;
31336;SDS011;22846;42.654;23.314;2023-05-29T14:13:38;1.30;;;1.20;;
31336;SDS011;22846;42.654;23.314;2023-05-29T14:16:04;1.60;;;1.38;;
31336;SDS011;22846;42.654;23.314;2023-05-29T14:18:29;2.40;;;1.10;;
31336;SDS011;22846;42.654;23.314;2023-05-29T14:20:55;1.67;;;1.35;;
31336;SDS011;22846;42.654;23.314;2023-05-29T14:23:20;2.20;;;1.20;;
31336;SDS011;22846;42.654;23.314;2023-05-29T14:25:46;1.60;;;1.25;;
31336;SDS011;22846;42.654;23.314;2023-05-29T14:28:11;1.80;;;1.40;;
31336;SDS011;22846;42.654;23.314;2023-05-29T14:30:37;1.50;;;1.30;;
31336;SDS011;22846;42.654;23.314;2023-05-29T14:33:03;2.08;;;1.38;;
31336;SDS011;22846;42.654;23.314;2023-05-29T14:35:28;1.27;;;1.10;;
31336;SDS011;22846;42.654;23.314;2023-05-29T14:37:54;1.73;;;1.30;;
31336;SDS011;22846;42.654;23.314;2023-05-29T14:40:20;2.03;;;1.25;;
31336;SDS011;22846;42.654;23.314;2023-05-29T14:42:45;2.53;;;1.50;;
31336;SDS011;22846;42.654;23.314;2023-05-29T14:45:11;2.10;;;1.20;;
31336;SDS011;22846;42.654;23.314;2023-05-29T14:47:36;1.85;;;1.20;;
31336;SDS011;22846;42.654;23.314;2023-05-29T14:50:02;1.95;;;1.30;;
31336;SDS011;22846;42.654;23.314;2023-05-29T14:52:27;1.55;;;1.30;;
31336;SDS011;22846;42.654;23.314;2023-05-29T14:54:53;1.30;;;1.10;;
31336;SDS011;22846;42.654;23.314;2023-05-29T14:57:18;1.50;;;1.40;;
31336;SDS011;22846;42.654;23.314;2023-05-29T14:59:43;1.60;;;1.30;;
31336;SDS011;22846;42.654;23.314;2023-05-29T15:02:09;1.30;;;1.10;;